Time;durP1;ratioP1;P1;durP2;ratioP2;P2;SDS_P1;SDS_P2;PMS_P1;PMS_P2;Temp;Humidity;BMP_temperature;BMP_pressure;BME280_temperature;BME280_humidity;BME280_pressure;Samples;Min_cycle;Max_cycle;Signal;HPM_P1;HPM_P2
2022/11/22 00:00:29;;;;;;;48.75;24.38;;;3.80;99.90;;;;;;6231492;23;20008;-80
2022/11/22 00:02:55;;;;;;;52.25;23.45;;;3.80;99.90;;;;;;6259209;23;20091;-79
2022/11/22 00:05:21;;;;;;;51.63;23.30;;;3.80;99.90;;;;;;6254819;23;20000;-83
2022/11/22 00:07:47;;;;;;;47.72;21.08;;;3.70;99.90;;;;;;6254746;23;20013;-79
2022/11/22 00:10:13;;;;;;;54.85;23.92;;;3.70;99.90;;;;;;6224255;23;20004;-82
2022/11/22 00:12:39;;;;;;;53.05;22.10;;;3.60;99.90;;;;;;6252457;23;20019;-80
2022/11/22 00:15:06;;;;;;;52.00;21.60;;;3.60;99.90;;;;;;6249831;23;20004;-80
2022/11/22 00:17:33;;;;;;;50.00;23.63;;;3.50;99.90;;;;;;6249821;23;20036;-81
2022/11/22 00:19:59;;;;;;;49.60;22.02;;;3.50;99.90;;;;;;6249297;23;20004;-80
2022/11/22 00:22:25;;;;;;;50.20;21.77;;;3.50;99.90;;;;;;6250357;23;20008;-81
2022/11/22 00:24:51;;;;;;;51.92;22.35;;;3.50;99.90;;;;;;6223425;23;20004;-80
2022/11/22 00:27:18;;;;;;;54.33;23.08;;;3.50;99.90;;;;;;6249902;23;20073;-81
2022/11/22 00:29:44;;;;;;;48.85;21.88;;;3.50;99.90;;;;;;6250060;23;20346;-79
2022/11/22 00:32:09;;;;;;;49.45;22.50;;;3.50;99.90;;;;;;6253445;23;20095;-79
2022/11/22 00:34:35;;;;;;;53.05;22.48;;;3.40;99.90;;;;;;6257090;23;20004;-79
2022/11/22 00:37:01;;;;;;;47.63;21.60;;;3.30;99.90;;;;;;6253604;23;20004;-79
2022/11/22 00:39:27;;;;;;;45.75;20.67;;;3.20;99.90;;;;;;6224950;23;20030;-80
2022/11/22 00:41:52;;;;;;;53.80;19.95;;;3.10;99.90;;;;;;6253385;23;20074;-79
2022/11/22 00:44:18;;;;;;;46.95;20.90;;;3.00;99.90;;;;;;6256594;23;20019;-79
2022/11/22 00:46:44;;;;;;;47.80;20.23;;;3.00;99.90;;;;;;6254098;23;20024;-80
2022/11/22 00:49:09;;;;;;;49.92;22.48;;;3.00;99.90;;;;;;6253749;23;20350;-80
2022/11/22 00:51:35;;;;;;;51.90;22.00;;;2.90;99.90;;;;;;6255822;23;20012;-80
2022/11/22 00:54:01;;;;;;;56.45;21.48;;;2.90;99.90;;;;;;6252335;23;20011;-80
2022/11/22 00:56:27;;;;;;;47.10;19.52;;;2.90;99.90;;;;;;6250889;23;20079;-80
2022/11/22 00:58:52;;;;;;;47.42;18.92;;;2.70;99.90;;;;;;6251238;23;20000;-80
2022/11/22 01:01:18;;;;;;;41.60;18.35;;;2.70;99.90;;;;;;6223675;23;20051;-80
2022/11/22 01:03:44;;;;;;;42.65;17.67;;;2.60;99.90;;;;;;6224312;23;19996;-79
2022/11/22 01:06:10;;;;;;;45.38;19.00;;;2.60;99.90;;;;;;6228501;23;20061;-81
2022/11/22 01:08:36;;;;;;;42.92;17.95;;;2.70;99.90;;;;;;6236787;23;20253;-80
2022/11/22 01:11:01;;;;;;;52.25;17.67;;;2.70;99.90;;;;;;6239437;23;20012;-79
2022/11/22 01:13:28;;;;;;;46.70;17.95;;;2.70;99.90;;;;;;6264589;23;19988;-80
2022/11/22 01:16:02;;;;;;;49.05;17.90;;;2.60;99.90;;;;;;6268048;23;20004;-80
2022/11/22 01:18:29;;;;;;;56.47;17.13;;;2.60;99.90;;;;;;6244410;22;20010;-79
2022/11/22 01:20:54;;;;;;;47.97;18.05;;;2.60;99.90;;;;;;6271093;22;20004;-79
2022/11/22 01:23:20;;;;;;;38.40;15.88;;;2.60;99.90;;;;;;6271075;22;20072;-78
2022/11/22 01:25:46;;;;;;;39.88;16.20;;;2.70;99.90;;;;;;6271547;22;20044;-78
2022/11/22 01:28:12;;;;;;;46.15;17.63;;;2.70;99.90;;;;;;6218717;23;20000;-77
2022/11/22 01:30:38;;;;;;;47.75;18.48;;;2.70;99.90;;;;;;6269912;22;20031;-78
2022/11/22 01:33:05;;;;;;;39.03;17.00;;;2.60;99.90;;;;;;6270368;22;20051;-79
2022/11/22 01:35:31;;;;;;;46.70;17.63;;;2.60;99.90;;;;;;6265098;23;20032;-78
2022/11/22 01:37:56;;;;;;;38.30;17.08;;;2.60;99.90;;;;;;6263949;23;19996;-79
2022/11/22 01:40:22;;;;;;;41.88;17.65;;;2.70;99.90;;;;;;6242205;23;20058;-78
2022/11/22 01:42:51;;;;;;;47.08;18.15;;;2.70;99.90;;;;;;6267006;23;20012;-79
2022/11/22 01:45:29;;;;;;;49.28;18.95;;;2.70;99.90;;;;;;6266831;23;20019;-79
2022/11/22 01:48:00;;;;;;;41.88;17.58;;;2.80;99.90;;;;;;6265485;23;20437;-77
2022/11/22 01:50:28;;;;;;;52.28;18.92;;;2.80;99.90;;;;;;6239156;23;20001;-79
2022/11/22 01:53:00;;;;;;;47.15;17.92;;;2.80;99.90;;;;;;6260339;23;19999;-80
2022/11/22 01:55:25;;;;;;;40.83;16.92;;;2.80;99.90;;;;;;6264963;23;20046;-79
2022/11/22 01:57:51;;;;;;;42.15;16.70;;;2.90;99.90;;;;;;6268848;23;20000;-78
2022/11/22 02:00:17;;;;;;;48.03;18.00;;;2.90;99.90;;;;;;6241475;23;20107;-79
2022/11/22 02:02:49;;;;;;;57.28;18.90;;;2.90;99.90;;;;;;6269084;23;20022;-79
2022/11/22 02:05:20;;;;;;;53.63;19.15;;;3.00;99.90;;;;;;6267023;23;20008;-79
2022/11/22 02:07:56;;;;;;;46.78;18.73;;;3.00;99.90;;;;;;6262778;23;20103;-79
2022/11/22 02:10:25;;;;;;;54.25;19.42;;;3.00;99.90;;;;;;6238983;23;20008;-80
2022/11/22 02:12:54;;;;;;;48.55;18.73;;;3.10;99.90;;;;;;6236480;23;20007;-78
2022/11/22 02:15:20;;;;;;;50.22;20.23;;;3.10;99.90;;;;;;6254015;23;20001;-79
2022/11/22 02:17:46;;;;;;;49.25;19.33;;;3.10;99.90;;;;;;6255211;23;20000;-80
2022/11/22 02:20:12;;;;;;;52.83;20.52;;;3.20;99.90;;;;;;6202326;23;20019;-78
2022/11/22 02:22:37;;;;;;;54.63;20.17;;;3.20;99.90;;;;;;6252524;23;20008;-80
2022/11/22 02:25:27;;;;;;;51.95;20.33;;;3.30;99.90;;;;;;6251599;23;20549;-79
2022/11/22 02:27:53;;;;;;;51.13;20.17;;;3.30;99.90;;;;;;6252094;23;20439;-81
2022/11/22 02:30:20;;;;;;;53.03;20.15;;;3.30;99.90;;;;;;6252300;23;20050;-80
2022/11/22 02:32:46;;;;;;;52.35;19.80;;;3.40;99.90;;;;;;6262331;23;20008;-79
2022/11/22 02:35:16;;;;;;;47.13;17.33;;;3.40;99.90;;;;;;6264542;23;20090;-79
2022/11/22 02:37:43;;;;;;;57.45;20.15;;;3.40;99.90;;;;;;6264830;23;20015;-79
2022/11/22 02:40:12;;;;;;;57.88;20.20;;;3.50;99.90;;;;;;6261941;23;19999;-79
2022/11/22 02:42:41;;;;;;;49.42;18.23;;;3.40;99.90;;;;;;6263016;23;20091;-81
2022/11/22 02:45:07;;;;;;;60.17;21.13;;;3.50;99.90;;;;;;6258389;23;20022;-79
2022/11/22 02:47:33;;;;;;;54.97;19.98;;;3.50;99.90;;;;;;6262840;23;20000;-79
2022/11/22 02:49:59;;;;;;;54.25;20.15;;;3.50;99.90;;;;;;6262520;23;20385;-79
2022/11/22 02:52:25;;;;;;;60.72;20.27;;;3.60;99.90;;;;;;6264676;23;20406;-79
2022/11/22 02:54:50;;;;;;;53.78;18.98;;;3.60;99.90;;;;;;6262465;23;20000;-79
2022/11/22 02:57:16;;;;;;;53.15;21.45;;;3.60;99.90;;;;;;6263593;23;20032;-78
2022/11/22 02:59:42;;;;;;;53.38;20.20;;;3.60;99.90;;;;;;6234772;23;20008;-79
2022/11/22 03:02:08;;;;;;;58.88;21.55;;;3.60;99.90;;;;;;6260483;23;20004;-79
2022/11/22 03:04:34;;;;;;;62.08;20.60;;;3.70;99.90;;;;;;6253170;23;20003;-80
2022/11/22 03:07:00;;;;;;;65.97;22.95;;;3.70;99.90;;;;;;6224891;23;20034;-80
2022/11/22 03:09:27;;;;;;;62.33;21.25;;;3.80;99.90;;;;;;6251530;23;20085;-80
2022/11/22 03:11:53;;;;;;;57.83;21.63;;;3.80;99.90;;;;;;6252423;23;20004;-79
2022/11/22 03:14:19;;;;;;;61.08;22.58;;;3.80;99.90;;;;;;6255735;23;20004;-80
2022/11/22 03:16:46;;;;;;;60.58;22.40;;;3.90;99.90;;;;;;6257790;23;20004;-79
2022/11/22 03:19:13;;;;;;;60.28;21.65;;;3.90;99.90;;;;;;6229486;23;20004;-80
2022/11/22 03:21:40;;;;;;;67.90;23.95;;;4.00;99.90;;;;;;6262711;23;20477;-79
2022/11/22 03:24:06;;;;;;;61.20;23.33;;;3.90;99.90;;;;;;6260899;23;20042;-80
2022/11/22 03:26:33;;;;;;;60.42;21.77;;;4.00;99.90;;;;;;6261035;23;20054;-78
2022/11/22 03:28:59;;;;;;;57.00;19.58;;;4.00;99.90;;;;;;6230228;23;20294;-81
2022/11/22 03:31:25;;;;;;;56.55;21.48;;;4.00;99.90;;;;;;6255010;23;20083;-80
2022/11/22 03:33:52;;;;;;;56.78;20.55;;;4.00;99.90;;;;;;6252778;23;20296;-79
2022/11/22 03:36:18;;;;;;;58.05;20.48;;;4.10;99.90;;;;;;6256608;23;20083;-80
2022/11/22 03:38:44;;;;;;;55.80;20.98;;;4.10;99.90;;;;;;6272385;22;20032;-79
2022/11/22 03:41:10;;;;;;;58.10;20.45;;;4.10;99.90;;;;;;6246048;22;20094;-79
2022/11/22 03:43:36;;;;;;;46.80;18.73;;;4.10;99.90;;;;;;6220896;23;19996;-78
2022/11/22 03:46:02;;;;;;;52.05;20.30;;;4.20;99.90;;;;;;6272433;22;19996;-77
2022/11/22 03:48:28;;;;;;;50.03;19.67;;;4.20;99.90;;;;;;6271527;22;19996;-78
2022/11/22 03:51:01;;;;;;;53.42;21.20;;;4.20;99.90;;;;;;6272032;22;20056;-80
2022/11/22 03:53:27;;;;;;;48.28;18.15;;;4.30;99.90;;;;;;6272619;22;19996;-78
2022/11/22 03:55:52;;;;;;;49.65;19.30;;;4.30;99.90;;;;;;6220689;23;20035;-79
2022/11/22 03:58:18;;;;;;;39.85;16.88;;;4.30;99.90;;;;;;6241021;23;20019;-78
2022/11/22 04:00:44;;;;;;;50.47;18.63;;;4.40;99.90;;;;;;6271820;22;20000;-78
2022/11/22 04:03:09;;;;;;;41.97;16.52;;;4.40;99.90;;;;;;6246078;23;20007;-77
2022/11/22 04:05:35;;;;;;;42.38;17.60;;;4.50;99.90;;;;;;6245885;23;20016;-79
2022/11/22 04:08:01;;;;;;;43.85;17.40;;;4.50;99.90;;;;;;6266034;22;20004;-80
2022/11/22 04:10:27;;;;;;;37.92;15.27;;;4.50;99.90;;;;;;6251059;23;20015;-79
2022/11/22 04:12:59;;;;;;;51.38;17.40;;;4.50;99.90;;;;;;6252053;23;20004;-79
2022/11/22 04:15:25;;;;;;;42.05;16.73;;;4.60;99.90;;;;;;6252963;23;20079;-79
2022/11/22 04:17:51;;;;;;;43.47;17.83;;;4.60;99.90;;;;;;6258614;23;20000;-78
2022/11/22 04:23:08;;;;;;;43.50;17.45;;;4.60;99.90;;;;;;6250274;23;20032;-80
2022/11/22 04:25:36;;;;;;;40.33;17.17;;;4.60;99.90;;;;;;6250599;23;20067;-80
2022/11/22 04:28:03;;;;;;;39.80;15.10;;;4.60;99.90;;;;;;6250955;23;20004;-78
2022/11/22 04:33:14;;;;;;;41.78;15.82;;;4.70;99.90;;;;;;6259063;23;20316;-78
2022/11/22 04:35:42;;;;;;;40.33;16.65;;;4.70;99.90;;;;;;6258422;23;20319;-78
2022/11/22 04:38:08;;;;;;;38.72;16.27;;;4.70;99.90;;;;;;6256558;23;20485;-80
2022/11/22 04:40:34;;;;;;;39.30;15.95;;;4.70;99.90;;;;;;6225853;23;20004;-79
2022/11/22 04:45:45;;;;;;;36.13;14.55;;;4.70;99.90;;;;;;6252046;23;20000;-81
2022/11/22 04:48:11;;;;;;;37.67;15.63;;;4.70;99.90;;;;;;6251340;23;20000;-80
2022/11/22 04:53:23;;;;;;;32.78;14.40;;;4.80;99.90;;;;;;6265647;23;20495;-79
2022/11/22 04:55:49;;;;;;;41.28;15.73;;;4.80;99.90;;;;;;6243103;23;20018;-78
2022/11/22 04:58:15;;;;;;;36.08;15.05;;;4.80;99.90;;;;;;6243406;23;20008;-80
2022/11/22 05:00:41;;;;;;;36.22;14.57;;;4.80;99.90;;;;;;6243495;23;19996;-78
2022/11/22 05:03:07;;;;;;;37.95;14.75;;;4.90;99.90;;;;;;6262887;22;20008;-80
2022/11/22 05:05:37;;;;;;;36.55;15.63;;;4.90;99.90;;;;;;6228796;23;20007;-80
2022/11/22 05:08:04;;;;;;;38.67;15.75;;;4.90;99.90;;;;;;6257402;23;20323;-80
2022/11/22 05:10:55;;;;;;;35.33;15.02;;;4.90;99.90;;;;;;6229978;23;20034;-79
2022/11/22 05:13:21;;;;;;;38.35;15.95;;;4.90;99.90;;;;;;6252544;23;20030;-80
2022/11/22 05:15:47;;;;;;;35.80;15.25;;;4.90;99.90;;;;;;6252929;23;20008;-79
2022/11/22 05:18:13;;;;;;;40.17;16.33;;;5.00;99.90;;;;;;6251333;23;20008;-78
2022/11/22 05:20:39;;;;;;;36.72;15.35;;;5.00;99.90;;;;;;6226550;23;20012;-79
2022/11/22 05:25:49;;;;;;;34.05;15.75;;;5.10;99.90;;;;;;6252480;23;20007;-79
2022/11/22 05:28:15;;;;;;;35.65;15.68;;;5.00;99.90;;;;;;6252629;23;20001;-78
2022/11/22 05:30:41;;;;;;;35.25;15.75;;;5.10;99.90;;;;;;6257348;23;20056;-77
2022/11/22 05:33:06;;;;;;;37.28;15.35;;;5.10;99.90;;;;;;6256082;23;20004;-78
2022/11/22 05:35:32;;;;;;;35.05;14.70;;;5.10;99.90;;;;;;6235924;23;20000;-78
2022/11/22 05:37:58;;;;;;;36.78;14.93;;;5.10;99.90;;;;;;6254772;22;20004;-79
2022/11/22 05:40:25;;;;;;;34.78;15.25;;;5.10;99.90;;;;;;6256708;23;20031;-78
2022/11/22 05:42:51;;;;;;;36.08;15.25;;;5.20;99.90;;;;;;6229397;23;20003;-79
2022/11/22 05:45:17;;;;;;;41.47;16.95;;;5.20;99.90;;;;;;6252497;23;20012;-80
2022/11/22 05:47:43;;;;;;;31.75;14.27;;;5.20;99.90;;;;;;6252154;23;20012;-80
2022/11/22 05:50:09;;;;;;;36.47;14.90;;;5.20;99.90;;;;;;6254224;23;20035;-79
2022/11/22 05:52:35;;;;;;;31.50;14.60;;;5.30;99.90;;;;;;6253825;23;20000;-80
2022/11/22 05:55:01;;;;;;;35.20;15.68;;;5.20;99.90;;;;;;6261219;23;20011;-80
2022/11/22 05:57:27;;;;;;;36.88;15.57;;;5.20;99.90;;;;;;6261639;23;20007;-82
2022/11/22 05:59:53;;;;;;;35.83;15.57;;;5.20;99.90;;;;;;6265724;23;20027;-79
2022/11/22 06:02:19;;;;;;;34.25;16.10;;;5.20;99.90;;;;;;6265865;23;20008;-80
2022/11/22 06:04:45;;;;;;;39.25;16.58;;;5.30;99.90;;;;;;6262534;23;20004;-81
2022/11/22 06:07:11;;;;;;;31.67;15.10;;;5.30;99.90;;;;;;6255641;23;20026;-80
2022/11/22 06:09:37;;;;;;;34.20;15.95;;;5.30;99.90;;;;;;6252616;23;20004;-80
2022/11/22 06:12:03;;;;;;;33.17;14.82;;;5.40;99.90;;;;;;6224955;23;20076;-81
2022/11/22 06:14:29;;;;;;;34.35;15.15;;;5.40;99.90;;;;;;6250874;23;20015;-81
2022/11/22 06:16:55;;;;;;;36.20;15.63;;;5.40;99.90;;;;;;6228648;23;20083;-82
2022/11/22 06:19:21;;;;;;;37.83;15.90;;;5.40;99.90;;;;;;6251666;23;20011;-80
2022/11/22 06:21:46;;;;;;;39.47;17.65;;;5.50;99.90;;;;;;6255379;23;20000;-81
2022/11/22 06:24:12;;;;;;;36.72;15.50;;;5.60;99.90;;;;;;6252343;23;20374;-82
2022/11/22 06:26:38;;;;;;;34.55;16.13;;;5.50;99.90;;;;;;6252106;23;20004;-80
2022/11/22 06:29:04;;;;;;;36.88;16.35;;;5.50;99.90;;;;;;6253520;23;20007;-79
2022/11/22 06:31:29;;;;;;;38.70;17.02;;;5.50;99.90;;;;;;6254000;23;20000;-80
2022/11/22 06:33:58;;;;;;;39.25;17.67;;;5.50;99.90;;;;;;6227499;23;20023;-80
2022/11/22 06:36:27;;;;;;;36.97;16.27;;;5.60;99.90;;;;;;6253046;23;20011;-79
2022/11/22 06:38:53;;;;;;;41.00;17.85;;;5.60;99.90;;;;;;6262248;23;20000;-80
2022/11/22 06:41:21;;;;;;;42.97;17.58;;;5.60;99.90;;;;;;6261866;23;20004;-80
2022/11/22 06:43:48;;;;;;;35.30;16.65;;;5.70;99.90;;;;;;6236318;23;20004;-80
2022/11/22 06:46:16;;;;;;;39.60;16.17;;;5.60;99.90;;;;;;6262881;23;20079;-81
2022/11/22 06:48:42;;;;;;;39.13;17.25;;;5.60;99.90;;;;;;6263045;23;20001;-80
2022/11/22 06:51:27;;;;;;;37.53;16.45;;;5.70;99.90;;;;;;6266824;23;20031;-81
2022/11/22 06:53:54;;;;;;;37.05;16.35;;;5.70;99.90;;;;;;6266541;23;20451;-81
2022/11/22 06:56:23;;;;;;;36.60;16.92;;;5.60;99.90;;;;;;6236094;23;20000;-79
2022/11/22 06:58:50;;;;;;;37.42;16.70;;;5.60;99.90;;;;;;6263242;23;20015;-80
2022/11/22 07:01:22;;;;;;;42.38;17.80;;;5.60;99.90;;;;;;6260489;23;20360;-80
2022/11/22 07:03:48;;;;;;;45.70;17.20;;;5.60;99.90;;;;;;6253780;23;20000;-82
2022/11/22 07:06:16;;;;;;;40.42;17.50;;;5.60;99.90;;;;;;6254323;23;20004;-83
2022/11/22 07:08:43;;;;;;;44.25;18.25;;;5.60;99.90;;;;;;6255671;23;20377;-81
2022/11/22 07:11:14;;;;;;;40.60;17.88;;;5.60;99.90;;;;;;6229749;23;20004;-79
2022/11/22 07:13:50;;;;;;;35.58;17.30;;;5.60;99.90;;;;;;6217227;23;20023;-80
2022/11/22 07:16:18;;;;;;;42.65;17.65;;;5.50;99.90;;;;;;6265204;23;20012;-80
2022/11/22 07:18:44;;;;;;;43.55;17.42;;;5.50;99.90;;;;;;6263613;23;20000;-78
2022/11/22 07:21:13;;;;;;;46.42;18.23;;;5.60;99.90;;;;;;6263949;23;20008;-79
2022/11/22 07:23:40;;;;;;;42.72;17.10;;;5.50;99.90;;;;;;6264251;23;20016;-78
2022/11/22 07:26:06;;;;;;;45.88;17.90;;;5.50;99.90;;;;;;6266510;23;20004;-79
2022/11/22 07:28:32;;;;;;;43.17;17.65;;;5.50;99.90;;;;;;6264930;23;20024;-79
2022/11/22 07:30:59;;;;;;;39.88;17.23;;;5.50;99.90;;;;;;6265187;23;20087;-79
2022/11/22 07:33:26;;;;;;;39.13;17.33;;;5.50;99.90;;;;;;6266715;23;20000;-79
2022/11/22 07:35:51;;;;;;;41.78;17.33;;;5.50;99.90;;;;;;6268377;23;20016;-80
2022/11/22 07:38:17;;;;;;;43.40;17.90;;;5.50;99.90;;;;;;6266287;23;20019;-80
2022/11/22 07:40:43;;;;;;;41.55;18.25;;;5.60;99.90;;;;;;6258780;23;20027;-81
2022/11/22 07:43:09;;;;;;;42.03;18.67;;;5.50;99.90;;;;;;6256469;23;20055;-80
2022/11/22 07:45:36;;;;;;;38.20;17.13;;;5.50;99.90;;;;;;6254258;23;20011;-81
2022/11/22 07:48:01;;;;;;;35.70;16.92;;;5.50;99.90;;;;;;6229511;23;20000;-80
2022/11/22 07:50:28;;;;;;;41.15;18.58;;;5.50;99.90;;;;;;6229934;23;20015;-80
2022/11/22 07:52:57;;;;;;;36.08;15.73;;;5.50;99.90;;;;;;6256493;23;20065;-82
2022/11/22 07:55:24;;;;;;;45.08;17.27;;;5.40;99.90;;;;;;6256966;23;20004;-79
2022/11/22 07:57:51;;;;;;;42.15;17.33;;;5.40;99.90;;;;;;6261481;23;20292;-80
2022/11/22 08:00:18;;;;;;;48.00;19.45;;;5.40;99.90;;;;;;6263812;23;20038;-81
2022/11/22 08:02:44;;;;;;;39.08;17.52;;;5.40;99.90;;;;;;6256557;23;20000;-79
2022/11/22 08:05:10;;;;;;;41.85;17.52;;;5.40;99.90;;;;;;6252896;23;20342;-79
2022/11/22 08:07:36;;;;;;;41.47;18.88;;;5.30;99.90;;;;;;6253998;23;20076;-80
2022/11/22 08:10:03;;;;;;;44.97;19.52;;;5.30;99.90;;;;;;6253777;23;20008;-81
2022/11/22 08:12:28;;;;;;;48.30;19.77;;;5.20;99.90;;;;;;6252326;23;20011;-80
2022/11/22 08:14:54;;;;;;;41.53;19.30;;;5.10;99.90;;;;;;6252779;23;20008;-81
2022/11/22 08:17:20;;;;;;;46.90;19.88;;;5.10;99.90;;;;;;6254653;23;20079;-78
2022/11/22 08:19:48;;;;;;;41.47;18.80;;;5.00;99.90;;;;;;6254092;23;20094;-80
2022/11/22 08:22:14;;;;;;;44.08;19.25;;;5.00;99.90;;;;;;6254839;23;20103;-81
2022/11/22 08:24:39;;;;;;;43.58;19.65;;;4.90;99.90;;;;;;6251916;23;20008;-80
2022/11/22 08:27:05;;;;;;;47.38;20.63;;;4.90;99.90;;;;;;6252229;23;20370;-80
2022/11/22 08:29:31;;;;;;;46.28;21.25;;;4.90;99.90;;;;;;6253834;23;20112;-80
2022/11/22 08:31:57;;;;;;;44.53;19.40;;;4.90;99.90;;;;;;6252339;23;20046;-80
2022/11/22 08:34:22;;;;;;;46.28;20.30;;;4.90;99.90;;;;;;6254739;23;20007;-79
2022/11/22 08:36:48;;;;;;;50.13;20.75;;;4.90;99.90;;;;;;6254662;23;20016;-80
2022/11/22 08:39:14;;;;;;;46.75;19.83;;;4.90;99.90;;;;;;6252503;23;20012;-80
2022/11/22 08:41:40;;;;;;;48.38;20.95;;;4.90;99.90;;;;;;6254025;23;20007;-78
2022/11/22 08:44:06;;;;;;;45.85;21.05;;;4.80;99.90;;;;;;6254822;23;20011;-80
2022/11/22 08:46:32;;;;;;;46.85;21.20;;;4.80;99.90;;;;;;6227873;23;20023;-77
2022/11/22 08:48:58;;;;;;;50.03;21.20;;;4.80;99.90;;;;;;6263840;23;20023;-78
2022/11/22 08:51:23;;;;;;;48.25;21.90;;;4.80;99.90;;;;;;6260520;23;20000;-79
2022/11/22 08:53:49;;;;;;;53.92;22.20;;;4.80;99.90;;;;;;6226341;23;20087;-79
2022/11/22 08:56:15;;;;;;;52.53;22.30;;;4.90;99.90;;;;;;6253646;23;19996;-80
2022/11/22 08:58:41;;;;;;;47.13;23.08;;;4.90;99.90;;;;;;6258691;23;20027;-81
2022/11/22 09:01:11;;;;;;;51.20;22.77;;;4.90;99.90;;;;;;6257938;23;20012;-81
2022/11/22 09:03:39;;;;;;;64.32;27.63;;;5.00;99.90;;;;;;6227062;23;20061;-80
2022/11/22 09:06:13;;;;;;;55.47;22.67;;;5.00;99.90;;;;;;6261392;23;20020;-79
2022/11/22 09:08:39;;;;;;;;;;;5.10;99.90;;;;;;6257781;23;20004;-80
2022/11/22 09:11:10;;;;;;;39.75;20.38;;;5.20;99.90;;;;;;6205269;23;19951;-78
2022/11/22 09:13:37;;;;;;;43.75;20.67;;;5.20;99.90;;;;;;6255897;23;20010;-79
2022/11/22 09:16:11;;;;;;;41.67;19.88;;;5.30;99.90;;;;;;6258205;23;20054;-81
2022/11/22 09:18:37;;;;;;;51.90;21.92;;;5.40;99.90;;;;;;6257970;23;20012;-80
2022/11/22 09:21:14;;;;;;;44.90;21.08;;;5.40;99.90;;;;;;6255384;23;20000;-79
2022/11/22 09:23:42;;;;;;;41.60;20.65;;;5.50;99.90;;;;;;6253927;23;20015;-79
2022/11/22 09:26:14;;;;;;;48.70;21.27;;;5.50;99.90;;;;;;6256483;23;20074;-80
2022/11/22 09:28:39;;;;;;;44.20;20.77;;;5.50;99.90;;;;;;6255289;23;20422;-82
2022/11/22 09:31:10;;;;;;;46.80;20.45;;;5.50;99.90;;;;;;6254014;23;20004;-80
2022/11/22 09:33:39;;;;;;;48.20;22.75;;;5.50;99.90;;;;;;6254398;23;20342;-80
2022/11/22 09:36:12;;;;;;;50.10;22.98;;;5.40;99.90;;;;;;6253922;23;20004;-79
2022/11/22 09:38:39;;;;;;;49.17;23.43;;;5.40;99.90;;;;;;6253148;23;20110;-80
2022/11/22 09:41:16;;;;;;;46.42;21.73;;;5.40;99.90;;;;;;6253831;23;20004;-81
2022/11/22 09:44:15;;;;;;;49.45;23.27;;;5.50;99.90;;;;;;6254301;23;20030;-80
2022/11/22 09:46:43;;;;;;;44.58;21.73;;;5.50;99.90;;;;;;6226616;23;20083;-83
2022/11/22 09:49:27;;;;;;;50.05;21.88;;;5.50;99.90;;;;;;6253094;23;20000;-80
2022/11/22 09:52:00;;;;;;;44.03;21.58;;;5.50;99.90;;;;;;6230327;23;20051;-79
2022/11/22 09:54:45;;;;;;;45.78;21.00;;;5.60;99.90;;;;;;6255988;23;20011;-79
2022/11/22 09:57:23;;;;;;;48.17;23.20;;;5.60;99.90;;;;;;6254322;23;20004;-79
2022/11/22 10:00:00;;;;;;;48.70;23.33;;;5.70;99.90;;;;;;6249636;23;20055;-80
2022/11/22 10:02:34;;;;;;;46.05;22.02;;;5.70;99.90;;;;;;6252156;23;20004;-80
2022/11/22 10:05:04;;;;;;;45.97;22.38;;;5.60;99.90;;;;;;6225722;23;20058;-78
2022/11/22 10:07:44;;;;;;;48.20;22.52;;;5.60;99.90;;;;;;6251276;23;20000;-80
2022/11/22 10:10:37;;;;;;;44.47;22.02;;;5.70;99.90;;;;;;6252971;23;20016;-78
2022/11/22 10:13:11;;;;;;;52.40;22.48;;;5.70;99.90;;;;;;6251646;23;20427;-79
2022/11/22 10:15:46;;;;;;;51.60;23.23;;;5.70;99.90;;;;;;6252226;23;20008;-78
2022/11/22 10:18:30;;;;;;;53.72;22.77;;;5.70;99.90;;;;;;6199598;23;20012;-78
2022/11/22 10:20:56;;;;;;;47.90;22.80;;;5.70;99.90;;;;;;6253810;23;20000;-77
2022/11/22 10:23:24;;;;;;;47.60;22.42;;;5.70;99.90;;;;;;6255529;23;20038;-81
2022/11/22 10:26:16;;;;;;;50.17;22.00;;;5.80;99.90;;;;;;6258661;23;20073;-79
2022/11/22 10:29:02;;;;;;;47.33;22.27;;;5.80;99.90;;;;;;6257591;23;20446;-80
2022/11/22 10:31:30;;;;;;;43.35;22.70;;;5.90;99.90;;;;;;6258246;23;20004;-78
2022/11/22 10:34:14;;;;;;;48.38;22.50;;;5.90;99.90;;;;;;6255988;23;20000;-79
2022/11/22 10:36:45;;;;;;;44.90;22.02;;;5.80;99.90;;;;;;6257108;23;20004;-80
2022/11/22 10:39:17;;;;;;;43.58;21.48;;;5.80;99.90;;;;;;6255079;23;20346;-80
2022/11/22 10:42:29;;;;;;;47.40;22.92;;;5.80;99.90;;;;;;6255815;23;20004;-79
2022/11/22 10:45:04;;;;;;;43.45;21.40;;;5.80;99.90;;;;;;6133159;23;20006;-80
2022/11/22 10:47:57;;;;;;;47.47;21.45;;;5.90;99.90;;;;;;6220039;23;20004;-80
2022/11/22 10:50:26;;;;;;;45.90;21.48;;;5.90;99.90;;;;;;6254572;23;20003;-80
2022/11/22 10:53:02;;;;;;;46.50;22.17;;;5.90;99.90;;;;;;6256532;23;20011;-79
2022/11/22 10:55:53;;;;;;;42.45;23.35;;;5.90;99.90;;;;;;6267161;23;20008;-82
2022/11/22 10:58:30;;;;;;;43.40;21.65;;;6.00;99.90;;;;;;6265804;23;20057;-81
2022/11/22 11:01:13;;;;;;;50.53;22.75;;;5.90;99.90;;;;;;6271095;22;20056;-80
2022/11/22 11:03:43;;;;;;;47.78;22.23;;;6.00;99.90;;;;;;6272213;23;20012;-79
2022/11/22 11:06:39;;;;;;;45.42;21.98;;;6.00;99.90;;;;;;6271990;22;19996;-82
2022/11/22 11:09:27;;;;;;;48.15;21.63;;;6.10;99.90;;;;;;6272900;23;20008;-79
2022/11/22 11:11:54;;;;;;;46.60;21.63;;;6.00;99.90;;;;;;6246744;23;20169;-79
2022/11/22 11:14:31;;;;;;;48.15;21.98;;;6.00;99.90;;;;;;6270392;23;20025;-81
2022/11/22 11:16:59;;;;;;;43.90;20.83;;;6.10;99.90;;;;;;6238037;23;20008;-80
2022/11/22 11:19:31;;;;;;;45.65;21.33;;;6.10;99.90;;;;;;6257298;23;20030;-80
2022/11/22 11:22:08;;;;;;;41.22;20.92;;;6.20;99.90;;;;;;6263693;23;20011;-79
2022/11/22 11:24:39;;;;;;;37.58;18.95;;;6.20;99.90;;;;;;6263040;23;20000;-80
2022/11/22 11:27:08;;;;;;;40.15;18.42;;;6.30;99.90;;;;;;6256904;23;20005;-80
2022/11/22 11:29:48;;;;;;;39.42;17.58;;;6.30;99.90;;;;;;6254582;23;20000;-78
2022/11/22 11:32:19;;;;;;;35.80;18.13;;;6.40;99.90;;;;;;6228970;23;20008;-81
2022/11/22 11:35:07;;;;;;;34.15;17.23;;;6.40;99.90;;;;;;6254410;23;20012;-79
2022/11/22 11:37:36;;;;;;;36.03;17.40;;;6.40;99.90;;;;;;6232556;23;20008;-79
2022/11/22 11:40:23;;;;;;;35.88;17.70;;;6.30;99.90;;;;;;6257409;23;20011;-79
2022/11/22 11:43:09;;;;;;;37.10;17.33;;;6.30;99.90;;;;;;6257934;23;20022;-80
2022/11/22 11:45:35;;;;;;;38.75;19.27;;;6.30;99.90;;;;;;6258646;23;20342;-80
2022/11/22 11:48:01;;;;;;;37.80;19.00;;;6.30;99.90;;;;;;6235244;23;19999;-78
2022/11/22 11:50:30;;;;;;;35.83;18.13;;;6.20;99.90;;;;;;6263765;23;20052;-80
2022/11/22 11:53:04;;;;;;;37.97;19.13;;;6.20;99.90;;;;;;6263573;23;20007;-80
2022/11/22 11:55:34;;;;;;;38.03;18.42;;;6.20;99.90;;;;;;6270449;23;20386;-78
2022/11/22 11:58:14;;;;;;;43.28;18.38;;;6.30;99.90;;;;;;6270011;23;20079;-78
2022/11/22 12:00:40;;;;;;;32.60;16.33;;;6.30;99.90;;;;;;6268245;23;20035;-79
2022/11/22 12:03:11;;;;;;;35.67;15.95;;;6.30;99.90;;;;;;6265774;23;20012;-80
2022/11/22 12:05:36;;;;;;;29.83;14.95;;;6.30;99.90;;;;;;6265610;23;20077;-79
2022/11/22 12:08:22;;;;;;;28.73;15.02;;;6.40;99.90;;;;;;6235057;23;20000;-78
2022/11/22 12:11:17;;;;;;;31.48;14.93;;;6.40;99.90;;;;;;6263297;23;20012;-78
2022/11/22 12:13:44;;;;;;;27.95;14.82;;;6.50;99.90;;;;;;6225276;23;20019;-80
2022/11/22 12:16:27;;;;;;;28.88;14.02;;;6.50;99.90;;;;;;6262109;23;20008;-77
2022/11/22 12:19:23;;;;;;;36.53;14.55;;;6.60;99.90;;;;;;6261976;23;20008;-80
2022/11/22 12:22:14;;;;;;;31.27;14.40;;;6.60;99.90;;;;;;6262913;23;20004;-79
2022/11/22 12:25:02;;;;;;;32.15;15.25;;;6.70;99.90;;;;;;6264417;23;20004;-80
2022/11/22 12:27:30;;;;;;;29.45;15.13;;;6.80;99.90;;;;;;6262162;23;20008;-77
2022/11/22 12:29:57;;;;;;;30.17;14.75;;;6.80;99.90;;;;;;6262923;23;19998;-81
2022/11/22 12:32:28;;;;;;;29.45;15.15;;;6.90;99.90;;;;;;6231875;23;20004;-80
2022/11/22 12:35:04;;;;;;;29.40;16.52;;;6.90;99.90;;;;;;6255947;23;20066;-81
2022/11/22 12:37:43;;;;;;;33.17;18.05;;;6.90;99.90;;;;;;6232107;23;20011;-78
2022/11/22 12:40:17;;;;;;;43.83;19.58;;;6.80;99.90;;;;;;6228560;23;20008;-79
2022/11/22 12:42:50;;;;;;;38.13;19.23;;;6.90;99.90;;;;;;6254547;23;20011;-81
2022/11/22 12:45:41;;;;;;;36.35;19.52;;;6.90;99.90;;;;;;6251036;23;20446;-80
2022/11/22 12:48:27;;;;;;;40.03;21.02;;;7.00;99.90;;;;;;6253628;23;20008;-80
2022/11/22 12:50:57;;;;;;;39.65;21.00;;;7.00;99.90;;;;;;6225097;23;20016;-79
2022/11/22 12:53:34;;;;;;;38.30;20.83;;;7.00;99.90;;;;;;6226468;23;20058;-79
2022/11/22 12:56:16;;;;;;;37.13;19.77;;;7.10;99.90;;;;;;6253737;23;20008;-80
2022/11/22 12:58:54;;;;;;;53.38;20.73;;;7.00;99.90;;;;;;6253744;23;20015;-80
2022/11/22 13:01:37;;;;;;;38.88;21.25;;;7.00;99.90;;;;;;6252522;23;20000;-79
2022/11/22 13:04:09;;;;;;;41.47;20.80;;;7.00;99.90;;;;;;6252265;23;20351;-80